sensor_id;sensor_type;location;lat;lon;timestamp;P1;P2;P0
47079;PMS5003;33067;49.296;14.470;2023-04-25T00:00:53;29;29;
47079;PMS5003;33067;49.296;14.470;2023-04-25T00:03:18;79;79;
47079;PMS5003;33067;49.296;14.470;2023-04-25T00:05:43;75;75;
47079;PMS5003;33067;49.296;14.470;2023-04-25T00:08:08;30;30;
47079;PMS5003;33067;49.296;14.470;2023-04-25T00:10:33;36;35;
47079;PMS5003;33067;49.296;14.470;2023-04-25T00:12:59;45;45;
47079;PMS5003;33067;49.296;14.470;2023-04-25T00:15:24;29;29;
47079;PMS5003;33067;49.296;14.470;2023-04-25T00:17:50;39;38;
47079;PMS5003;33067;49.296;14.470;2023-04-25T00:20:15;36;33;
47079;PMS5003;33067;49.296;14.470;2023-04-25T00:22:40;42;42;
47079;PMS5003;33067;49.296;14.470;2023-04-25T00:25:06;30;30;
47079;PMS5003;33067;49.296;14.470;2023-04-25T00:27:31;37;37;
47079;PMS5003;33067;49.296;14.470;2023-04-25T00:29:57;37;36;
47079;PMS5003;33067;49.296;14.470;2023-04-25T00:32:21;41;41;
47079;PMS5003;33067;49.296;14.470;2023-04-25T00:34:46;40;40;
47079;PMS5003;33067;49.296;14.470;2023-04-25T00:37:11;16;14;
47079;PMS5003;33067;49.296;14.470;2023-04-25T00:39:37;32;32;
47079;PMS5003;33067;49.296;14.470;2023-04-25T00:42:02;30;30;
47079;PMS5003;33067;49.296;14.470;2023-04-25T00:44:27;19;19;
47079;PMS5003;33067;49.296;14.470;2023-04-25T00:46:53;40;40;
47079;PMS5003;33067;49.296;14.470;2023-04-25T00:49:17;24;24;
47079;PMS5003;33067;49.296;14.470;2023-04-25T00:51:43;20;20;
47079;PMS5003;33067;49.296;14.470;2023-04-25T00:54:08;12;11;
47079;PMS5003;33067;49.296;14.470;2023-04-25T00:56:33;10;10;
47079;PMS5003;33067;49.296;14.470;2023-04-25T00:58:58;8;8;
47079;PMS5003;33067;49.296;14.470;2023-04-25T01:01:24;12;12;
47079;PMS5003;33067;49.296;14.470;2023-04-25T01:03:49;10;10;
47079;PMS5003;33067;49.296;14.470;2023-04-25T01:06:15;10;7;
47079;PMS5003;33067;49.296;14.470;2023-04-25T01:08:40;7;7;
47079;PMS5003;33067;49.296;14.470;2023-04-25T01:11:05;10;10;
47079;PMS5003;33067;49.296;14.470;2023-04-25T01:13:31;7;7;
47079;PMS5003;33067;49.296;14.470;2023-04-25T01:15:56;8;8;
47079;PMS5003;33067;49.296;14.470;2023-04-25T01:18:21;10;10;
47079;PMS5003;33067;49.296;14.470;2023-04-25T01:20:48;13;13;
47079;PMS5003;33067;49.296;14.470;2023-04-25T01:23:13;8;8;
47079;PMS5003;33067;49.296;14.470;2023-04-25T01:25:38;7;7;
47079;PMS5003;33067;49.296;14.470;2023-04-25T01:28:03;11;9;
47079;PMS5003;33067;49.296;14.470;2023-04-25T01:30:29;11;11;
47079;PMS5003;33067;49.296;14.470;2023-04-25T01:32:54;14;14;
47079;PMS5003;33067;49.296;14.470;2023-04-25T01:35:19;24;24;
47079;PMS5003;33067;49.296;14.470;2023-04-25T01:37:45;25;25;
47079;PMS5003;33067;49.296;14.470;2023-04-25T01:40:10;35;35;
47079;PMS5003;33067;49.296;14.470;2023-04-25T01:42:38;30;29;
47079;PMS5003;33067;49.296;14.470;2023-04-25T01:45:01;24;22;
47079;PMS5003;33067;49.296;14.470;2023-04-25T01:47:26;29;29;
47079;PMS5003;33067;49.296;14.470;2023-04-25T01:49:51;26;24;
47079;PMS5003;33067;49.296;14.470;2023-04-25T01:52:17;31;30;
47079;PMS5003;33067;49.296;14.470;2023-04-25T01:54:42;25;25;
47079;PMS5003;33067;49.296;14.470;2023-04-25T01:57:08;28;28;
47079;PMS5003;33067;49.296;14.470;2023-04-25T01:59:32;26;23;
47079;PMS5003;33067;49.296;14.470;2023-04-25T02:01:57;23;23;
47079;PMS5003;33067;49.296;14.470;2023-04-25T02:04:23;44;42;
47079;PMS5003;33067;49.296;14.470;2023-04-25T02:06:48;44;44;
47079;PMS5003;33067;49.296;14.470;2023-04-25T02:09:13;36;36;
47079;PMS5003;33067;49.296;14.470;2023-04-25T02:13:01;32;32;
47079;PMS5003;33067;49.296;14.470;2023-04-25T02:15:26;38;38;
47079;PMS5003;33067;49.296;14.470;2023-04-25T02:17:52;22;21;
47079;PMS5003;33067;49.296;14.470;2023-04-25T02:20:17;30;29;
47079;PMS5003;33067;49.296;14.470;2023-04-25T02:22:42;58;55;
47079;PMS5003;33067;49.296;14.470;2023-04-25T02:25:08;50;49;
47079;PMS5003;33067;49.296;14.470;2023-04-25T02:27:33;22;20;
47079;PMS5003;33067;49.296;14.470;2023-04-25T02:30:00;75;73;
47079;PMS5003;33067;49.296;14.470;2023-04-25T02:32:24;33;33;
47079;PMS5003;33067;49.296;14.470;2023-04-25T02:34:49;9;9;
47079;PMS5003;33067;49.296;14.470;2023-04-25T02:37:15;25;25;
47079;PMS5003;33067;49.296;14.470;2023-04-25T02:39:40;45;43;
47079;PMS5003;33067;49.296;14.470;2023-04-25T02:42:05;41;41;
47079;PMS5003;33067;49.296;14.470;2023-04-25T02:44:31;9;9;
47079;PMS5003;33067;49.296;14.470;2023-04-25T02:46:56;6;6;
47079;PMS5003;33067;49.296;14.470;2023-04-25T02:49:22;9;9;
47079;PMS5003;33067;49.296;14.470;2023-04-25T02:51:47;11;11;
47079;PMS5003;33067;49.296;14.470;2023-04-25T02:54:12;12;12;
47079;PMS5003;33067;49.296;14.470;2023-04-25T02:56:38;14;13;
47079;PMS5003;33067;49.296;14.470;2023-04-25T02:59:03;13;10;
47079;PMS5003;33067;49.296;14.470;2023-04-25T03:01:28;11;10;
47079;PMS5003;33067;49.296;14.470;2023-04-25T03:03:56;10;10;
47079;PMS5003;33067;49.296;14.470;2023-04-25T03:06:19;17;13;
47079;PMS5003;33067;49.296;14.470;2023-04-25T03:08:45;13;13;
47079;PMS5003;33067;49.296;14.470;2023-04-25T03:11:10;15;13;
47079;PMS5003;33067;49.296;14.470;2023-04-25T03:13:35;13;11;
47079;PMS5003;33067;49.296;14.470;2023-04-25T03:16:01;19;18;
47079;PMS5003;33067;49.296;14.470;2023-04-25T03:18:26;13;13;
47079;PMS5003;33067;49.296;14.470;2023-04-25T03:20:51;16;14;
47079;PMS5003;33067;49.296;14.470;2023-04-25T03:23:17;15;12;
47079;PMS5003;33067;49.296;14.470;2023-04-25T03:25:42;13;12;
47079;PMS5003;33067;49.296;14.470;2023-04-25T03:28:07;13;13;
47079;PMS5003;33067;49.296;14.470;2023-04-25T03:30:32;16;16;
47079;PMS5003;33067;49.296;14.470;2023-04-25T03:32:57;10;10;
47079;PMS5003;33067;49.296;14.470;2023-04-25T03:35:23;13;12;
47079;PMS5003;33067;49.296;14.470;2023-04-25T03:37:48;12;12;
47079;PMS5003;33067;49.296;14.470;2023-04-25T03:40:13;15;13;
47079;PMS5003;33067;49.296;14.470;2023-04-25T03:42:38;18;15;
47079;PMS5003;33067;49.296;14.470;2023-04-25T03:45:04;17;14;
47079;PMS5003;33067;49.296;14.470;2023-04-25T03:47:28;13;12;
47079;PMS5003;33067;49.296;14.470;2023-04-25T03:49:54;16;13;
47079;PMS5003;33067;49.296;14.470;2023-04-25T03:52:19;13;13;
47079;PMS5003;33067;49.296;14.470;2023-04-25T03:54:44;16;12;
47079;PMS5003;33067;49.296;14.470;2023-04-25T03:57:10;13;11;
47079;PMS5003;33067;49.296;14.470;2023-04-25T03:59:35;10;10;
47079;PMS5003;33067;49.296;14.470;2023-04-25T04:02:00;10;7;
47079;PMS5003;33067;49.296;14.470;2023-04-25T04:04:25;10;9;
47079;PMS5003;33067;49.296;14.470;2023-04-25T04:06:51;9;8;
47079;PMS5003;33067;49.296;14.470;2023-04-25T04:09:16;9;8;
47079;PMS5003;33067;49.296;14.470;2023-04-25T04:11:41;15;12;
47079;PMS5003;33067;49.296;14.470;2023-04-25T04:14:07;11;10;
47079;PMS5003;33067;49.296;14.470;2023-04-25T04:16:32;11;10;
47079;PMS5003;33067;49.296;14.470;2023-04-25T04:18:58;10;10;
47079;PMS5003;33067;49.296;14.470;2023-04-25T04:21:23;14;13;
47079;PMS5003;33067;49.296;14.470;2023-04-25T04:23:48;14;11;
47079;PMS5003;33067;49.296;14.470;2023-04-25T04:26:13;12;11;
47079;PMS5003;33067;49.296;14.470;2023-04-25T04:28:39;12;12;
47079;PMS5003;33067;49.296;14.470;2023-04-25T04:31:04;11;10;
47079;PMS5003;33067;49.296;14.470;2023-04-25T04:33:29;11;11;
47079;PMS5003;33067;49.296;14.470;2023-04-25T04:35:55;13;13;
47079;PMS5003;33067;49.296;14.470;2023-04-25T04:38:20;14;13;
47079;PMS5003;33067;49.296;14.470;2023-04-25T04:40:45;13;11;
47079;PMS5003;33067;49.296;14.470;2023-04-25T04:43:10;13;13;
47079;PMS5003;33067;49.296;14.470;2023-04-25T04:45:36;14;13;
47079;PMS5003;33067;49.296;14.470;2023-04-25T04:48:01;14;14;
47079;PMS5003;33067;49.296;14.470;2023-04-25T04:50:27;17;14;
47079;PMS5003;33067;49.296;14.470;2023-04-25T04:52:51;15;15;
47079;PMS5003;33067;49.296;14.470;2023-04-25T04:55:17;17;14;
47079;PMS5003;33067;49.296;14.470;2023-04-25T04:57:42;12;11;
47079;PMS5003;33067;49.296;14.470;2023-04-25T05:00:08;20;18;
47079;PMS5003;33067;49.296;14.470;2023-04-25T05:02:33;19;18;
47079;PMS5003;33067;49.296;14.470;2023-04-25T05:04:58;28;27;
47079;PMS5003;33067;49.296;14.470;2023-04-25T05:07:24;19;18;
47079;PMS5003;33067;49.296;14.470;2023-04-25T05:09:49;23;22;
47079;PMS5003;33067;49.296;14.470;2023-04-25T05:12:15;15;13;
47079;PMS5003;33067;49.296;14.470;2023-04-25T05:14:40;17;14;
47079;PMS5003;33067;49.296;14.470;2023-04-25T05:17:05;17;17;
47079;PMS5003;33067;49.296;14.470;2023-04-25T05:19:31;36;36;
47079;PMS5003;33067;49.296;14.470;2023-04-25T05:21:56;31;29;
47079;PMS5003;33067;49.296;14.470;2023-04-25T05:24:21;34;34;
47079;PMS5003;33067;49.296;14.470;2023-04-25T05:26:47;24;23;
47079;PMS5003;33067;49.296;14.470;2023-04-25T05:29:13;17;16;
47079;PMS5003;33067;49.296;14.470;2023-04-25T05:31:38;16;16;
47079;PMS5003;33067;49.296;14.470;2023-04-25T05:34:04;14;14;
47079;PMS5003;33067;49.296;14.470;2023-04-25T05:36:29;13;13;
47079;PMS5003;33067;49.296;14.470;2023-04-25T05:38:55;14;14;
47079;PMS5003;33067;49.296;14.470;2023-04-25T05:41:20;12;12;
47079;PMS5003;33067;49.296;14.470;2023-04-25T05:43:46;13;12;
47079;PMS5003;33067;49.296;14.470;2023-04-25T05:46:12;18;16;
47079;PMS5003;33067;49.296;14.470;2023-04-25T05:48:38;13;13;
47079;PMS5003;33067;49.296;14.470;2023-04-25T05:51:03;13;13;
47079;PMS5003;33067;49.296;14.470;2023-04-25T05:53:29;13;12;
47079;PMS5003;33067;49.296;14.470;2023-04-25T05:55:55;26;25;
47079;PMS5003;33067;49.296;14.470;2023-04-25T05:58:20;48;38;
47079;PMS5003;33067;49.296;14.470;2023-04-25T06:00:46;63;55;
47079;PMS5003;33067;49.296;14.470;2023-04-25T06:03:11;71;60;
47079;PMS5003;33067;49.296;14.470;2023-04-25T06:05:36;71;62;
47079;PMS5003;33067;49.296;14.470;2023-04-25T06:08:02;75;65;
47079;PMS5003;33067;49.296;14.470;2023-04-25T06:10:27;96;85;
47079;PMS5003;33067;49.296;14.470;2023-04-25T06:12:53;73;66;
47079;PMS5003;33067;49.296;14.470;2023-04-25T06:15:18;26;25;
47079;PMS5003;33067;49.296;14.470;2023-04-25T06:17:44;34;32;
47079;PMS5003;33067;49.296;14.470;2023-04-25T06:20:09;26;21;
47079;PMS5003;33067;49.296;14.470;2023-04-25T06:22:35;31;25;
47079;PMS5003;33067;49.296;14.470;2023-04-25T06:25:00;20;19;
47079;PMS5003;33067;49.296;14.470;2023-04-25T06:27:25;27;25;
47079;PMS5003;33067;49.296;14.470;2023-04-25T06:29:51;21;20;
47079;PMS5003;33067;49.296;14.470;2023-04-25T06:32:16;19;19;
47079;PMS5003;33067;49.296;14.470;2023-04-25T06:34:41;39;38;
47079;PMS5003;33067;49.296;14.470;2023-04-25T06:37:07;62;59;
47079;PMS5003;33067;49.296;14.470;2023-04-25T06:39:32;50;48;
47079;PMS5003;33067;49.296;14.470;2023-04-25T06:41:58;48;45;
47079;PMS5003;33067;49.296;14.470;2023-04-25T06:44:23;28;27;
47079;PMS5003;33067;49.296;14.470;2023-04-25T06:46:49;14;14;
47079;PMS5003;33067;49.296;14.470;2023-04-25T06:49:14;18;18;
47079;PMS5003;33067;49.296;14.470;2023-04-25T06:51:40;15;15;
47079;PMS5003;33067;49.296;14.470;2023-04-25T06:54:04;14;13;
47079;PMS5003;33067;49.296;14.470;2023-04-25T06:56:30;14;13;
47079;PMS5003;33067;49.296;14.470;2023-04-25T06:58:56;14;14;
47079;PMS5003;33067;49.296;14.470;2023-04-25T07:01:21;12;12;
47079;PMS5003;33067;49.296;14.470;2023-04-25T07:03:47;18;18;
47079;PMS5003;33067;49.296;14.470;2023-04-25T07:06:12;10;9;
47079;PMS5003;33067;49.296;14.470;2023-04-25T07:08:38;15;13;
47079;PMS5003;33067;49.296;14.470;2023-04-25T07:11:03;14;14;
47079;PMS5003;33067;49.296;14.470;2023-04-25T07:13:28;15;14;
47079;PMS5003;33067;49.296;14.470;2023-04-25T07:15:53;12;10;
47079;PMS5003;33067;49.296;14.470;2023-04-25T07:18:19;13;13;
47079;PMS5003;33067;49.296;14.470;2023-04-25T07:20:44;15;14;
47079;PMS5003;33067;49.296;14.470;2023-04-25T07:23:09;15;15;
47079;PMS5003;33067;49.296;14.470;2023-04-25T07:25:34;14;13;
47079;PMS5003;33067;49.296;14.470;2023-04-25T07:28:00;15;13;
47079;PMS5003;33067;49.296;14.470;2023-04-25T07:30:26;9;9;
47079;PMS5003;33067;49.296;14.470;2023-04-25T07:32:51;12;11;
47079;PMS5003;33067;49.296;14.470;2023-04-25T07:35:16;19;18;
47079;PMS5003;33067;49.296;14.470;2023-04-25T07:37:41;15;14;
47079;PMS5003;33067;49.296;14.470;2023-04-25T07:40:07;16;13;
47079;PMS5003;33067;49.296;14.470;2023-04-25T07:42:32;16;12;
47079;PMS5003;33067;49.296;14.470;2023-04-25T07:44:57;15;10;
47079;PMS5003;33067;49.296;14.470;2023-04-25T07:47:23;14;14;
47079;PMS5003;33067;49.296;14.470;2023-04-25T07:49:48;14;14;
47079;PMS5003;33067;49.296;14.470;2023-04-25T07:52:14;11;11;
47079;PMS5003;33067;49.296;14.470;2023-04-25T07:54:39;14;14;
47079;PMS5003;33067;49.296;14.470;2023-04-25T07:57:05;11;10;
47079;PMS5003;33067;49.296;14.470;2023-04-25T07:59:30;9;9;
47079;PMS5003;33067;49.296;14.470;2023-04-25T08:01:55;11;10;
47079;PMS5003;33067;49.296;14.470;2023-04-25T08:04:20;10;10;
47079;PMS5003;33067;49.296;14.470;2023-04-25T08:06:46;16;16;
47079;PMS5003;33067;49.296;14.470;2023-04-25T08:09:26;13;13;
47079;PMS5003;33067;49.296;14.470;2023-04-25T08:11:41;21;18;
47079;PMS5003;33067;49.296;14.470;2023-04-25T08:14:07;10;9;
47079;PMS5003;33067;49.296;14.470;2023-04-25T08:16:32;9;9;
47079;PMS5003;33067;49.296;14.470;2023-04-25T08:18:58;11;10;
47079;PMS5003;33067;49.296;14.470;2023-04-25T08:21:22;16;11;
47079;PMS5003;33067;49.296;14.470;2023-04-25T08:23:43;15;14;
47079;PMS5003;33067;49.296;14.470;2023-04-25T08:26:08;11;9;
47079;PMS5003;33067;49.296;14.470;2023-04-25T08:28:33;54;50;
47079;PMS5003;33067;49.296;14.470;2023-04-25T08:30:59;14;14;
47079;PMS5003;33067;49.296;14.470;2023-04-25T08:33:24;17;16;
47079;PMS5003;33067;49.296;14.470;2023-04-25T08:35:49;18;16;
47079;PMS5003;33067;49.296;14.470;2023-04-25T08:38:15;11;11;
47079;PMS5003;33067;49.296;14.470;2023-04-25T08:40:41;11;11;
47079;PMS5003;33067;49.296;14.470;2023-04-25T08:43:06;16;15;
47079;PMS5003;33067;49.296;14.470;2023-04-25T08:45:32;18;15;
47079;PMS5003;33067;49.296;14.470;2023-04-25T08:47:57;16;16;
47079;PMS5003;33067;49.296;14.470;2023-04-25T08:50:23;18;17;
47079;PMS5003;33067;49.296;14.470;2023-04-25T08:52:49;16;16;
47079;PMS5003;33067;49.296;14.470;2023-04-25T08:55:14;14;12;
47079;PMS5003;33067;49.296;14.470;2023-04-25T08:57:39;14;14;
47079;PMS5003;33067;49.296;14.470;2023-04-25T09:00:05;17;15;
47079;PMS5003;33067;49.296;14.470;2023-04-25T09:02:30;16;15;
47079;PMS5003;33067;49.296;14.470;2023-04-25T09:04:55;19;16;
47079;PMS5003;33067;49.296;14.470;2023-04-25T09:07:20;22;20;
47079;PMS5003;33067;49.296;14.470;2023-04-25T09:09:46;23;20;
47079;PMS5003;33067;49.296;14.470;2023-04-25T09:12:12;14;14;
47079;PMS5003;33067;49.296;14.470;2023-04-25T09:14:38;24;23;
47079;PMS5003;33067;49.296;14.470;2023-04-25T09:17:04;15;15;
47079;PMS5003;33067;49.296;14.470;2023-04-25T09:19:29;18;16;
47079;PMS5003;33067;49.296;14.470;2023-04-25T09:21:54;20;17;
47079;PMS5003;33067;49.296;14.470;2023-04-25T09:24:19;10;10;
47079;PMS5003;33067;49.296;14.470;2023-04-25T09:26:45;17;17;
47079;PMS5003;33067;49.296;14.470;2023-04-25T09:29:10;14;11;
47079;PMS5003;33067;49.296;14.470;2023-04-25T09:31:35;11;11;
47079;PMS5003;33067;49.296;14.470;2023-04-25T09:34:00;14;11;
47079;PMS5003;33067;49.296;14.470;2023-04-25T09:36:26;12;12;
47079;PMS5003;33067;49.296;14.470;2023-04-25T09:38:51;13;12;
47079;PMS5003;33067;49.296;14.470;2023-04-25T09:41:21;19;17;
47079;PMS5003;33067;49.296;14.470;2023-04-25T09:43:41;12;11;
47079;PMS5003;33067;49.296;14.470;2023-04-25T09:46:07;9;9;
47079;PMS5003;33067;49.296;14.470;2023-04-25T09:48:32;9;9;
47079;PMS5003;33067;49.296;14.470;2023-04-25T09:51:03;9;9;
47079;PMS5003;33067;49.296;14.470;2023-04-25T09:53:22;7;7;
47079;PMS5003;33067;49.296;14.470;2023-04-25T09:55:47;5;5;
47079;PMS5003;33067;49.296;14.470;2023-04-25T09:58:12;6;6;
47079;PMS5003;33067;49.296;14.470;2023-04-25T10:00:38;6;6;
47079;PMS5003;33067;49.296;14.470;2023-04-25T10:03:03;9;8;
47079;PMS5003;33067;49.296;14.470;2023-04-25T10:05:28;6;6;
47079;PMS5003;33067;49.296;14.470;2023-04-25T10:07:53;7;7;
47079;PMS5003;33067;49.296;14.470;2023-04-25T10:10:19;12;10;
47079;PMS5003;33067;49.296;14.470;2023-04-25T10:12:44;9;9;
47079;PMS5003;33067;49.296;14.470;2023-04-25T10:15:09;7;7;
47079;PMS5003;33067;49.296;14.470;2023-04-25T10:17:35;7;7;
47079;PMS5003;33067;49.296;14.470;2023-04-25T10:20:00;10;10;
47079;PMS5003;33067;49.296;14.470;2023-04-25T10:22:28;11;11;
47079;PMS5003;33067;49.296;14.470;2023-04-25T10:24:50;9;9;
47079;PMS5003;33067;49.296;14.470;2023-04-25T10:27:15;8;8;
47079;PMS5003;33067;49.296;14.470;2023-04-25T10:29:41;11;9;
47079;PMS5003;33067;49.296;14.470;2023-04-25T10:32:06;8;8;
47079;PMS5003;33067;49.296;14.470;2023-04-25T10:34:39;10;9;
47079;PMS5003;33067;49.296;14.470;2023-04-25T10:36:56;8;8;
47079;PMS5003;33067;49.296;14.470;2023-04-25T10:39:22;8;8;
47079;PMS5003;33067;49.296;14.470;2023-04-25T10:41:47;9;9;
47079;PMS5003;33067;49.296;14.470;2023-04-25T10:44:12;10;10;
47079;PMS5003;33067;49.296;14.470;2023-04-25T10:46:37;9;9;
47079;PMS5003;33067;49.296;14.470;2023-04-25T10:49:03;11;11;
47079;PMS5003;33067;49.296;14.470;2023-04-25T10:51:28;11;8;
47079;PMS5003;33067;49.296;14.470;2023-04-25T10:53:57;6;5;
47079;PMS5003;33067;49.296;14.470;2023-04-25T10:56:18;7;7;
47079;PMS5003;33067;49.296;14.470;2023-04-25T10:58:43;9;9;
47079;PMS5003;33067;49.296;14.470;2023-04-25T11:01:08;6;6;
47079;PMS5003;33067;49.296;14.470;2023-04-25T11:03:36;5;5;
47079;PMS5003;33067;49.296;14.470;2023-04-25T11:05:59;8;8;
47079;PMS5003;33067;49.296;14.470;2023-04-25T11:08:27;8;8;
47079;PMS5003;33067;49.296;14.470;2023-04-25T11:10:49;7;7;
47079;PMS5003;33067;49.296;14.470;2023-04-25T11:13:14;7;7;
47079;PMS5003;33067;49.296;14.470;2023-04-25T11:15:40;8;8;
47079;PMS5003;33067;49.296;14.470;2023-04-25T11:18:05;9;9;
47079;PMS5003;33067;49.296;14.470;2023-04-25T11:20:30;7;5;
47079;PMS5003;33067;49.296;14.470;2023-04-25T11:22:57;4;4;
47079;PMS5003;33067;49.296;14.470;2023-04-25T11:25:22;5;4;
47079;PMS5003;33067;49.296;14.470;2023-04-25T11:27:50;4;4;
47079;PMS5003;33067;49.296;14.470;2023-04-25T11:30:14;4;4;
47079;PMS5003;33067;49.296;14.470;2023-04-25T11:32:37;4;3;
47079;PMS5003;33067;49.296;14.470;2023-04-25T11:35:02;2;2;
47079;PMS5003;33067;49.296;14.470;2023-04-25T11:37:28;3;3;
47079;PMS5003;33067;49.296;14.470;2023-04-25T11:39:52;2;2;
47079;PMS5003;33067;49.296;14.470;2023-04-25T11:42:18;1;1;
47079;PMS5003;33067;49.296;14.470;2023-04-25T11:44:43;2;2;
47079;PMS5003;33067;49.296;14.470;2023-04-25T11:47:08;3;3;
47079;PMS5003;33067;49.296;14.470;2023-04-25T11:49:33;2;2;
47079;PMS5003;33067;49.296;14.470;2023-04-25T11:51:59;3;1;
47079;PMS5003;33067;49.296;14.470;2023-04-25T11:54:24;3;3;
47079;PMS5003;33067;49.296;14.470;2023-04-25T11:56:49;3;3;
47079;PMS5003;33067;49.296;14.470;2023-04-25T11:59:14;3;3;
47079;PMS5003;33067;49.296;14.470;2023-04-25T12:01:40;3;3;
47079;PMS5003;33067;49.296;14.470;2023-04-25T12:04:10;3;3;
47079;PMS5003;33067;49.296;14.470;2023-04-25T12:06:31;3;3;
47079;PMS5003;33067;49.296;14.470;2023-04-25T12:09:00;2;2;
47079;PMS5003;33067;49.296;14.470;2023-04-25T12:11:21;3;3;
47079;PMS5003;33067;49.296;14.470;2023-04-25T12:13:46;2;2;
47079;PMS5003;33067;49.296;14.470;2023-04-25T12:16:11;2;2;
47079;PMS5003;33067;49.296;14.470;2023-04-25T12:18:36;4;2;
47079;PMS5003;33067;49.296;14.470;2023-04-25T12:21:02;2;2;
47079;PMS5003;33067;49.296;14.470;2023-04-25T12:23:27;2;2;
47079;PMS5003;33067;49.296;14.470;2023-04-25T12:25:52;2;2;
47079;PMS5003;33067;49.296;14.470;2023-04-25T12:28:18;3;3;
47079;PMS5003;33067;49.296;14.470;2023-04-25T12:30:52;3;3;
47079;PMS5003;33067;49.296;14.470;2023-04-25T12:33:08;2;2;
47079;PMS5003;33067;49.296;14.470;2023-04-25T12:35:33;4;3;
47079;PMS5003;33067;49.296;14.470;2023-04-25T12:37:59;4;4;
47079;PMS5003;33067;49.296;14.470;2023-04-25T12:40:24;3;3;
47079;PMS5003;33067;49.296;14.470;2023-04-25T12:42:49;4;4;
47079;PMS5003;33067;49.296;14.470;2023-04-25T12:45:14;2;2;
47079;PMS5003;33067;49.296;14.470;2023-04-25T12:47:40;3;3;
47079;PMS5003;33067;49.296;14.470;2023-04-25T12:50:05;3;3;
47079;PMS5003;33067;49.296;14.470;2023-04-25T12:52:30;4;3;
47079;PMS5003;33067;49.296;14.470;2023-04-25T12:54:56;3;3;
47079;PMS5003;33067;49.296;14.470;2023-04-25T12:57:21;4;4;
47079;PMS5003;33067;49.296;14.470;2023-04-25T12:59:46;3;3;
47079;PMS5003;33067;49.296;14.470;2023-04-25T13:02:11;3;3;
47079;PMS5003;33067;49.296;14.470;2023-04-25T13:04:37;4;4;
47079;PMS5003;33067;49.296;14.470;2023-04-25T13:07:02;5;5;
47079;PMS5003;33067;49.296;14.470;2023-04-25T13:09:27;7;5;
47079;PMS5003;33067;49.296;14.470;2023-04-25T13:11:52;5;5;
47079;PMS5003;33067;49.296;14.470;2023-04-25T13:14:18;10;8;
47079;PMS5003;33067;49.296;14.470;2023-04-25T13:16:43;6;5;
47079;PMS5003;33067;49.296;14.470;2023-04-25T13:19:08;3;3;
47079;PMS5003;33067;49.296;14.470;2023-04-25T13:21:34;4;4;
47079;PMS5003;33067;49.296;14.470;2023-04-25T13:23:59;6;6;
47079;PMS5003;33067;49.296;14.470;2023-04-25T13:26:25;4;4;
47079;PMS5003;33067;49.296;14.470;2023-04-25T13:28:49;3;3;
47079;PMS5003;33067;49.296;14.470;2023-04-25T13:31:15;5;4;
47079;PMS5003;33067;49.296;14.470;2023-04-25T13:33:40;6;6;
47079;PMS5003;33067;49.296;14.470;2023-04-25T13:36:05;13;10;
47079;PMS5003;33067;49.296;14.470;2023-04-25T13:38:31;15;15;
47079;PMS5003;33067;49.296;14.470;2023-04-25T13:40:56;4;4;
47079;PMS5003;33067;49.296;14.470;2023-04-25T13:43:21;6;6;
47079;PMS5003;33067;49.296;14.470;2023-04-25T13:45:47;13;12;
47079;PMS5003;33067;49.296;14.470;2023-04-25T13:48:12;9;9;
47079;PMS5003;33067;49.296;14.470;2023-04-25T13:50:37;13;12;
47079;PMS5003;33067;49.296;14.470;2023-04-25T13:53:02;4;3;
47079;PMS5003;33067;49.296;14.470;2023-04-25T13:55:28;8;7;
47079;PMS5003;33067;49.296;14.470;2023-04-25T13:57:53;8;8;
47079;PMS5003;33067;49.296;14.470;2023-04-25T14:00:18;7;6;
47079;PMS5003;33067;49.296;14.470;2023-04-25T14:02:43;9;9;
47079;PMS5003;33067;49.296;14.470;2023-04-25T14:05:09;8;8;
47079;PMS5003;33067;49.296;14.470;2023-04-25T14:07:34;9;8;
47079;PMS5003;33067;49.296;14.470;2023-04-25T14:09:59;6;6;
47079;PMS5003;33067;49.296;14.470;2023-04-25T14:12:24;7;7;
47079;PMS5003;33067;49.296;14.470;2023-04-25T14:14:49;16;16;
47079;PMS5003;33067;49.296;14.470;2023-04-25T14:17:15;11;11;
47079;PMS5003;33067;49.296;14.470;2023-04-25T14:19:41;17;15;
47079;PMS5003;33067;49.296;14.470;2023-04-25T14:22:06;10;9;
47079;PMS5003;33067;49.296;14.470;2023-04-25T14:24:31;8;8;
47079;PMS5003;33067;49.296;14.470;2023-04-25T14:26:57;5;5;
47079;PMS5003;33067;49.296;14.470;2023-04-25T14:29:22;9;8;
47079;PMS5003;33067;49.296;14.470;2023-04-25T14:31:47;10;10;
47079;PMS5003;33067;49.296;14.470;2023-04-25T14:34:13;15;11;
47079;PMS5003;33067;49.296;14.470;2023-04-25T14:36:38;7;7;
47079;PMS5003;33067;49.296;14.470;2023-04-25T14:39:03;10;10;
47079;PMS5003;33067;49.296;14.470;2023-04-25T14:41:28;10;8;
47079;PMS5003;33067;49.296;14.470;2023-04-25T14:43:54;10;10;
47079;PMS5003;33067;49.296;14.470;2023-04-25T14:46:20;11;9;
47079;PMS5003;33067;49.296;14.470;2023-04-25T14:48:45;10;10;
47079;PMS5003;33067;49.296;14.470;2023-04-25T14:51:10;11;11;
47079;PMS5003;33067;49.296;14.470;2023-04-25T14:53:36;13;13;
47079;PMS5003;33067;49.296;14.470;2023-04-25T14:56:01;8;8;
47079;PMS5003;33067;49.296;14.470;2023-04-25T14:58:27;9;9;
47079;PMS5003;33067;49.296;14.470;2023-04-25T15:00:52;9;8;
47079;PMS5003;33067;49.296;14.470;2023-04-25T15:03:17;8;6;
47079;PMS5003;33067;49.296;14.470;2023-04-25T15:05:43;6;6;
47079;PMS5003;33067;49.296;14.470;2023-04-25T15:08:08;12;10;
47079;PMS5003;33067;49.296;14.470;2023-04-25T15:10:33;9;9;
47079;PMS5003;33067;49.296;14.470;2023-04-25T15:12:58;9;8;
47079;PMS5003;33067;49.296;14.470;2023-04-25T15:15:24;9;9;
47079;PMS5003;33067;49.296;14.470;2023-04-25T15:17:50;9;9;
47079;PMS5003;33067;49.296;14.470;2023-04-25T15:20:15;20;19;
47079;PMS5003;33067;49.296;14.470;2023-04-25T15:22:41;8;8;
47079;PMS5003;33067;49.296;14.470;2023-04-25T15:25:06;13;11;
47079;PMS5003;33067;49.296;14.470;2023-04-25T15:27:31;8;8;
47079;PMS5003;33067;49.296;14.470;2023-04-25T15:29:57;7;7;
47079;PMS5003;33067;49.296;14.470;2023-04-25T15:32:22;6;6;
47079;PMS5003;33067;49.296;14.470;2023-04-25T15:34:47;12;12;
47079;PMS5003;33067;49.296;14.470;2023-04-25T15:37:13;9;9;
47079;PMS5003;33067;49.296;14.470;2023-04-25T15:39:38;8;8;
47079;PMS5003;33067;49.296;14.470;2023-04-25T15:42:03;12;12;
47079;PMS5003;33067;49.296;14.470;2023-04-25T15:44:28;10;9;
47079;PMS5003;33067;49.296;14.470;2023-04-25T15:46:53;32;30;
47079;PMS5003;33067;49.296;14.470;2023-04-25T15:49:19;9;8;
47079;PMS5003;33067;49.296;14.470;2023-04-25T15:51:44;10;9;
47079;PMS5003;33067;49.296;14.470;2023-04-25T15:54:09;10;10;
47079;PMS5003;33067;49.296;14.470;2023-04-25T15:56:34;10;9;
47079;PMS5003;33067;49.296;14.470;2023-04-25T15:59:00;9;8;
47079;PMS5003;33067;49.296;14.470;2023-04-25T16:01:26;13;13;